createdAt,value
2019-04-23T00:01:25.455Z,58.70
2019-04-23T00:03:58.479Z,59.30
2019-04-23T00:06:18.956Z,59.70
2019-04-23T00:08:51.860Z,59.90
2019-04-23T00:21:20.683Z,61.00
2019-04-23T00:23:59.657Z,61.60
2019-04-23T00:26:25.712Z,61.80
2019-04-23T00:28:50.579Z,62.50
2019-04-23T00:31:31.406Z,62.60
2019-04-23T00:33:51.165Z,63.20
2019-04-23T00:36:27.218Z,64.10
2019-04-23T00:41:16.411Z,65.00
2019-04-23T00:43:54.684Z,65.20
2019-04-23T00:46:22.310Z,65.20
2019-04-23T00:48:57.996Z,65.50
2019-04-23T00:51:42.722Z,66.20
2019-04-23T00:54:14.462Z,66.40
2019-04-23T00:59:08.257Z,68.00
2019-04-23T01:01:52.445Z,68.60
2019-04-23T01:04:10.222Z,69.20
2019-04-23T01:06:42.666Z,69.80
2019-04-23T01:09:08.512Z,70.40
2019-04-23T01:11:41.892Z,70.80
2019-04-23T01:14:11.430Z,70.90
2019-04-23T01:16:38.051Z,71.10
2019-04-23T01:19:43.240Z,71.00
2019-04-23T01:21:41.103Z,71.30
2019-04-23T01:24:31.308Z,71.60
2019-04-23T01:27:46.109Z,71.50
2019-04-23T01:32:38.192Z,70.70
2019-04-23T01:35:12.756Z,70.60
2019-04-23T01:37:36.710Z,71.30
2019-04-23T01:40:06.820Z,71.10
2019-04-23T01:42:41.942Z,71.10
2019-04-23T01:45:07.331Z,71.50
2019-04-23T01:47:38.826Z,71.60
2019-04-23T01:52:56.123Z,72.40
2019-04-23T01:55:10.242Z,72.30
2019-04-23T01:57:42.287Z,72.60
2019-04-23T02:00:08.554Z,73.20
2019-04-23T02:02:45.729Z,73.10
2019-04-23T02:07:47.220Z,73.40
2019-04-23T02:10:16.766Z,73.50
2019-04-23T02:12:41.998Z,73.30
2019-04-23T02:15:15.143Z,73.60
2019-04-23T02:17:38.290Z,73.80
2019-04-23T02:22:54.314Z,73.30
2019-04-23T02:25:25.324Z,73.30
2019-04-23T02:27:51.705Z,73.70
2019-04-23T02:30:40.261Z,73.90
2019-04-23T02:33:01.124Z,74.10
2019-04-23T02:35:36.683Z,73.90
2019-04-23T02:38:00.290Z,74.20
2019-04-23T02:40:37.789Z,74.20
2019-04-23T02:43:06.887Z,74.10
2019-04-23T02:45:27.390Z,74.20
2019-04-23T02:48:05.707Z,74.70
2019-04-23T02:50:34.622Z,74.90
2019-04-23T02:52:57.786Z,74.70
2019-04-23T02:55:29.251Z,75.00
2019-04-23T02:58:01.861Z,75.30
2019-04-23T03:00:28.816Z,75.20
2019-04-23T03:05:26.350Z,74.80
2019-04-23T03:07:53.293Z,74.90
2019-04-23T03:10:31.281Z,75.50
2019-04-23T03:13:07.408Z,76.10
2019-04-23T03:26:09.140Z,77.70
2019-04-23T03:51:03.211Z,79.90
2019-04-23T03:53:42.849Z,79.80
2019-04-23T03:58:39.085Z,80.50
2019-04-23T04:01:07.399Z,80.30
2019-04-23T04:04:05.508Z,80.00
2019-04-23T04:06:20.887Z,80.00
2019-04-23T04:08:33.922Z,80.00
2019-04-23T04:13:40.283Z,79.60
2019-04-23T04:16:19.763Z,79.70
2019-04-23T04:18:45.827Z,79.90
2019-04-23T04:21:09.626Z,80.00
2019-04-23T04:26:04.983Z,80.30
2019-04-23T04:28:46.067Z,80.10
2019-04-23T04:31:07.503Z,80.10
2019-04-23T04:33:51.118Z,80.20
2019-04-23T04:36:13.939Z,80.10
2019-04-23T04:38:42.377Z,80.00
2019-04-23T04:41:15.332Z,79.80
2019-04-23T04:43:43.368Z,79.30
2019-04-23T04:46:21.800Z,79.00
2019-04-23T04:48:40.262Z,78.60
2019-04-23T04:56:16.060Z,77.30
2019-04-23T04:58:49.083Z,77.30
2019-04-23T05:01:16.474Z,76.80
2019-04-23T05:06:31.249Z,76.90
2019-04-23T05:08:37.230Z,77.00
2019-04-23T05:11:21.499Z,76.90
2019-04-23T05:13:58.458Z,77.00
2019-04-23T05:16:07.734Z,77.30
2019-04-23T05:21:12.498Z,77.70
2019-04-23T05:26:17.846Z,77.90
2019-04-23T05:33:47.649Z,78.30
2019-04-23T05:38:50.845Z,77.80
2019-04-23T05:41:30.665Z,78.00
2019-04-23T05:43:46.388Z,77.60
2019-04-23T05:46:22.093Z,77.70
2019-04-23T05:48:49.288Z,77.30
2019-04-23T05:51:26.724Z,77.50
2019-04-23T05:53:47.355Z,77.30
2019-04-23T05:56:15.631Z,76.80
2019-04-23T05:58:53.027Z,76.40
2019-04-23T06:01:41.695Z,75.90
2019-04-23T06:03:58.167Z,76.60
2019-04-23T06:06:31.637Z,75.30
2019-04-23T06:08:53.268Z,74.90
2019-04-23T06:11:28.456Z,74.40
2019-04-23T06:14:03.486Z,74.40
2019-04-23T06:16:31.345Z,73.10
2019-04-23T06:18:59.397Z,73.30
2019-04-23T06:21:28.598Z,72.80
2019-04-23T06:24:03.421Z,72.30
2019-04-23T06:26:33.134Z,72.10
2019-04-23T06:29:02.450Z,71.30
2019-04-23T06:33:59.176Z,71.30
2019-04-23T06:36:30.738Z,69.80
2019-04-23T06:41:30.551Z,69.20
2019-04-23T06:44:05.830Z,68.90
2019-04-23T06:46:29.034Z,68.50
2019-04-23T06:48:54.767Z,67.10
2019-04-23T06:53:56.733Z,66.20
2019-04-23T06:56:37.471Z,66.30
2019-04-23T06:58:58.804Z,65.30
2019-04-23T07:01:27.735Z,65.20
2019-04-23T07:03:57.180Z,64.50
2019-04-23T07:06:47.182Z,64.00
2019-04-23T07:09:07.878Z,63.70
2019-04-23T07:11:40.384Z,62.50
2019-04-23T07:13:57.712Z,63.00
2019-04-23T07:16:28.300Z,63.30
2019-04-23T07:19:04.389Z,61.90
2019-04-23T07:21:43.641Z,61.40
2019-04-23T07:34:01.214Z,60.30
2019-04-23T07:39:07.631Z,59.40
2019-04-23T07:44:20.428Z,60.10
2019-04-23T07:47:11.695Z,59.20
2019-04-23T07:49:30.722Z,58.90
2019-04-23T07:52:11.066Z,57.90
2019-04-23T07:54:42.000Z,57.10
2019-04-23T07:57:12.145Z,56.00
2019-04-23T07:59:37.230Z,55.30
2019-04-23T08:02:12.798Z,54.70
2019-04-23T08:04:36.791Z,52.80
2019-04-23T08:07:06.670Z,51.50
2019-04-23T08:09:43.621Z,53.20
2019-04-23T08:12:13.353Z,51.30
2019-04-23T08:14:40.877Z,49.30
2019-04-23T08:17:04.318Z,48.90
2019-04-23T08:19:42.605Z,51.30
2019-04-23T08:22:12.689Z,52.30
2019-04-23T08:24:48.577Z,49.80
2019-04-23T08:29:36.388Z,49.10
2019-04-23T08:32:15.021Z,48.70
2019-04-23T08:37:24.707Z,48.70
2019-04-23T08:39:43.544Z,49.20
2019-04-23T08:42:33.173Z,48.30
2019-04-23T08:45:10.751Z,47.30
2019-04-23T08:47:52.455Z,47.00
2019-04-23T08:50:09.659Z,45.80
2019-04-23T08:52:37.010Z,43.50
2019-04-23T08:55:10.182Z,42.90
2019-04-23T08:57:36.979Z,41.20
2019-04-23T09:00:09.131Z,41.00
2019-04-23T09:02:41.144Z,39.80
2019-04-23T09:05:14.742Z,38.90
2019-04-23T09:08:01.537Z,40.10
2019-04-23T09:10:17.832Z,40.10
2019-04-23T09:12:45.854Z,39.40
2019-04-23T09:15:16.502Z,39.40
2019-04-23T09:22:38.841Z,39.80
2019-04-23T09:25:20.289Z,40.10
2019-04-23T09:27:47.102Z,38.70
2019-04-23T09:30:12.629Z,38.50
2019-04-23T09:32:47.353Z,38.90
2019-04-23T09:37:48.916Z,38.90
2019-04-23T09:40:27.522Z,38.80
2019-04-23T09:43:00.531Z,38.30
2019-04-23T09:45:28.206Z,38.00
2019-04-23T09:48:10.163Z,36.70
2019-04-23T09:50:38.485Z,36.70
2019-04-23T09:53:23.996Z,37.40
2019-04-23T10:03:01.613Z,35.70
2019-04-23T10:05:26.738Z,33.60
2019-04-23T10:07:54.405Z,32.00
2019-04-23T10:10:14.380Z,31.20
2019-04-23T10:12:44.071Z,32.50
2019-04-23T10:15:21.514Z,33.60
2019-04-23T10:17:44.404Z,33.10
2019-04-23T10:20:13.034Z,33.90
2019-04-23T10:22:42.202Z,34.10
2019-04-23T10:25:11.087Z,34.90
2019-04-23T10:27:41.233Z,33.80
2019-04-23T10:30:10.075Z,33.40
2019-04-23T10:32:39.984Z,33.50
2019-04-23T10:35:20.540Z,33.00
2019-04-23T10:37:50.104Z,32.00
2019-04-23T10:40:17.233Z,31.50
2019-04-23T10:42:44.008Z,32.20
2019-04-23T10:45:48.452Z,31.40
2019-04-23T10:49:15.555Z,30.60
2019-04-23T10:51:24.713Z,30.20
2019-04-23T10:54:15.809Z,31.40
2019-04-23T10:56:42.567Z,31.70
2019-04-23T10:59:12.220Z,31.20
2019-04-23T11:04:32.972Z,31.00
2019-04-23T11:06:47.185Z,32.10
2019-04-23T11:09:36.580Z,33.30
2019-04-23T11:11:52.450Z,34.60
2019-04-23T11:14:23.065Z,33.50
2019-04-23T11:19:25.818Z,34.10
2019-04-23T11:21:50.973Z,32.60
2019-04-23T11:24:32.426Z,33.60
2019-04-23T11:26:49.217Z,33.10
2019-04-23T11:29:29.699Z,33.20
2019-04-23T11:32:19.386Z,34.20
2019-04-23T11:34:33.721Z,33.50
2019-04-23T11:39:16.478Z,34.00
2019-04-23T11:44:31.905Z,32.10
2019-04-23T11:49:34.215Z,30.60
2019-04-23T11:57:14.150Z,30.70
2019-04-23T11:59:31.619Z,30.70
2019-04-23T12:02:07.425Z,30.00
2019-04-23T12:04:57.537Z,30.30
2019-04-23T12:07:29.794Z,30.70
2019-04-23T12:10:17.395Z,31.30
2019-04-23T12:12:33.339Z,30.70
2019-04-23T12:15:15.551Z,32.40
2019-04-23T12:17:40.906Z,33.30
2019-04-23T12:20:30.468Z,33.00
2019-04-23T12:22:51.000Z,34.50
2019-04-23T12:27:33.344Z,35.20
2019-04-23T12:40:29.097Z,36.70
2019-04-23T12:52:55.600Z,36.90
2019-04-23T13:00:25.676Z,36.10
2019-04-23T13:02:59.063Z,36.10
2019-04-23T13:07:55.642Z,36.80
2019-04-23T13:13:03.967Z,37.30
2019-04-23T13:17:55.497Z,36.40
2019-04-23T13:20:27.550Z,36.70
2019-04-23T13:23:05.193Z,37.70
2019-04-23T13:25:34.957Z,38.30
2019-04-23T13:28:08.362Z,36.50
2019-04-23T13:30:54.856Z,36.60
2019-04-23T13:33:12.108Z,37.10
2019-04-23T13:35:48.925Z,37.00
2019-04-23T13:40:40.698Z,36.20
2019-04-23T13:43:01.420Z,37.30
2019-04-23T13:45:53.602Z,37.70
2019-04-23T13:48:06.179Z,38.00
2019-04-23T13:50:49.619Z,38.20
2019-04-23T13:53:29.083Z,37.50
2019-04-23T13:55:27.911Z,37.70
2019-04-23T13:58:07.417Z,37.90
2019-04-23T14:03:03.971Z,38.40
2019-04-23T14:05:57.873Z,37.90
2019-04-23T14:08:16.439Z,39.50
2019-04-23T14:10:40.056Z,38.80
2019-04-23T14:13:28.558Z,39.50
2019-04-23T14:15:44.998Z,39.90
2019-04-23T14:18:29.057Z,39.10
2019-04-23T14:20:40.481Z,39.20
2019-04-23T14:23:14.491Z,39.40
2019-04-23T14:25:51.719Z,39.00
2019-04-23T14:30:48.578Z,38.60
2019-04-23T14:38:23.554Z,39.00
2019-04-23T14:43:14.524Z,38.70
2019-04-23T14:46:25.145Z,38.30
2019-04-23T14:48:23.476Z,37.90
2019-04-23T14:51:11.195Z,38.50
2019-04-23T14:53:33.587Z,39.20
2019-04-23T14:56:00.359Z,39.00
2019-04-23T14:58:57.776Z,39.20
2019-04-23T15:03:39.924Z,40.00
2019-04-23T15:08:40.334Z,39.60
2019-04-23T15:13:42.725Z,38.80
2019-04-23T15:16:20.990Z,38.50
2019-04-23T15:18:44.715Z,39.10
2019-04-23T15:21:34.298Z,40.20
2019-04-23T15:23:54.005Z,38.30
2019-04-23T15:27:08.549Z,39.20
2019-04-23T15:28:15.085Z,39.10
2019-04-23T15:33:49.142Z,39.70
2019-04-23T15:38:55.173Z,40.80
2019-04-23T15:41:21.291Z,40.70
2019-04-23T15:43:42.926Z,41.30
2019-04-23T15:46:20.257Z,42.40
2019-04-23T15:48:42.855Z,42.80
2019-04-23T15:51:19.899Z,43.40
2019-04-23T15:53:46.401Z,43.60
2019-04-23T15:56:23.232Z,42.50
2019-04-23T15:58:53.677Z,44.00
2019-04-23T16:01:29.231Z,44.90
2019-04-23T16:03:24.561Z,44.20
2019-04-23T16:05:53.020Z,44.20
2019-04-23T16:09:01.629Z,44.80
2019-04-23T16:11:33.568Z,44.50
2019-04-23T16:14:11.626Z,44.40
2019-04-23T16:16:26.238Z,43.70
2019-04-23T16:19:07.680Z,42.60
2019-04-23T16:21:47.391Z,42.10
2019-04-23T16:24:13.423Z,40.60
2019-04-23T16:29:25.838Z,41.20
2019-04-23T16:31:40.263Z,40.70
2019-04-23T16:34:27.191Z,39.80
2019-04-23T16:36:55.521Z,40.40
2019-04-23T16:39:17.865Z,41.70
2019-04-23T16:41:54.242Z,42.80
2019-04-23T16:44:36.667Z,43.30
2019-04-23T16:49:21.977Z,44.20
2019-04-23T16:51:47.054Z,44.20
2019-04-23T16:54:26.548Z,44.70
2019-04-23T16:59:17.975Z,46.50
2019-04-23T17:01:51.969Z,47.10
2019-04-23T17:06:54.929Z,48.70
2019-04-23T17:09:38.500Z,49.00
2019-04-23T17:12:01.543Z,49.40
2019-04-23T17:14:21.038Z,49.40
2019-04-23T17:16:45.955Z,50.20
2019-04-23T17:19:26.233Z,49.80
2019-04-23T17:21:57.183Z,50.20
2019-04-23T17:29:28.305Z,50.70
2019-04-23T17:31:49.068Z,51.10
2019-04-23T17:34:30.490Z,51.90
2019-04-23T17:37:07.405Z,52.30
2019-04-23T17:39:47.505Z,53.00
2019-04-23T17:42:22.404Z,53.40
2019-04-23T17:44:55.210Z,54.60
2019-04-23T17:47:28.378Z,55.50
2019-04-23T17:50:00.146Z,55.70
2019-04-23T17:52:26.444Z,56.20
2019-04-23T17:54:59.095Z,57.10
2019-04-23T17:57:26.372Z,57.60
2019-04-23T18:05:04.117Z,59.70
2019-04-23T18:07:40.592Z,60.20
2019-04-23T18:10:14.997Z,61.20
2019-04-23T18:14:52.717Z,62.50
2019-04-23T18:17:26.585Z,63.50
2019-04-23T18:20:05.237Z,64.30
2019-04-23T18:25:22.582Z,66.10
2019-04-23T18:27:47.170Z,66.20
2019-04-23T18:30:23.175Z,67.90
2019-04-23T18:35:29.406Z,69.80
2019-04-23T18:38:05.430Z,70.10
2019-04-23T18:40:54.304Z,71.10
2019-04-23T18:43:25.781Z,71.80
2019-04-23T18:48:39.217Z,72.80
2019-04-23T18:51:05.241Z,74.20
2019-04-23T18:53:45.409Z,73.90
2019-04-23T18:58:44.793Z,75.10
2019-04-23T19:01:05.063Z,75.60
2019-04-23T19:06:30.374Z,76.70
2019-04-23T19:11:59.415Z,77.90
2019-04-23T19:14:11.127Z,78.50
2019-04-23T19:16:41.550Z,79.00
2019-04-23T19:19:09.669Z,80.00
2019-04-23T19:22:01.206Z,81.10
2019-04-23T19:24:03.085Z,81.60
2019-04-23T19:29:16.006Z,82.30
2019-04-23T19:31:53.337Z,82.40
2019-04-23T19:39:17.592Z,83.60
2019-04-23T19:51:48.197Z,85.30
2019-04-23T19:54:38.296Z,85.30
2019-04-23T19:56:51.825Z,85.50
2019-04-23T19:59:15.757Z,85.60
2019-04-23T20:01:46.905Z,86.40
2019-04-23T20:04:23.528Z,86.80
2019-04-23T20:07:05.531Z,86.30
2019-04-23T20:09:33.006Z,86.40
2019-04-23T20:11:52.644Z,86.90
2019-04-23T20:14:09.344Z,88.00
2019-04-23T20:17:04.425Z,87.60
2019-04-23T20:19:21.225Z,87.30
2019-04-23T20:21:53.003Z,87.20
2019-04-23T20:26:50.829Z,87.80
2019-04-23T20:34:45.071Z,87.20
2019-04-23T20:36:59.489Z,87.20
2019-04-23T20:42:09.023Z,87.70
2019-04-23T20:44:40.837Z,87.80
2019-04-23T20:47:06.785Z,87.40
2019-04-23T20:52:04.658Z,87.00
2019-04-23T20:54:42.217Z,87.10
2019-04-23T20:57:30.561Z,86.00
2019-04-23T20:59:56.392Z,86.40
2019-04-23T21:02:41.995Z,86.70
2019-04-23T21:05:11.861Z,86.90
2019-04-23T21:07:30.842Z,87.10
2019-04-23T21:10:08.862Z,87.60
2019-04-23T21:12:45.158Z,88.30
2019-04-23T21:15:05.690Z,88.90
2019-04-23T21:17:38.426Z,88.50
2019-04-23T21:20:14.464Z,88.70
2019-04-23T21:22:31.058Z,90.30
2019-04-23T21:24:52.411Z,90.20
2019-04-23T21:27:43.211Z,90.00
2019-04-23T21:29:58.614Z,90.00
2019-04-23T21:32:35.895Z,90.00
2019-04-23T21:35:02.732Z,90.10
2019-04-23T21:37:50.090Z,90.30
2019-04-23T21:40:35.999Z,90.30
2019-04-23T21:42:57.256Z,90.20
2019-04-23T21:45:14.132Z,90.20
2019-04-23T21:47:55.987Z,90.20
2019-04-23T21:50:25.322Z,90.30
2019-04-23T21:52:50.292Z,90.30
2019-04-23T21:55:26.501Z,90.20
2019-04-23T21:58:01.346Z,90.10
2019-04-23T22:00:14.164Z,90.70
2019-04-23T22:02:57.457Z,90.70
2019-04-23T22:05:25.219Z,90.30
2019-04-23T22:07:56.728Z,90.40
2019-04-23T22:10:22.083Z,90.10
2019-04-23T22:13:05.258Z,90.20
2019-04-23T22:15:24.096Z,90.00
2019-04-23T22:25:13.440Z,90.60
2019-04-23T22:30:21.673Z,90.70
2019-04-23T22:32:56.201Z,90.70
2019-04-23T22:38:01.024Z,90.90
2019-04-23T22:40:15.058Z,90.90
2019-04-23T22:43:10.959Z,91.00
2019-04-23T22:45:19.974Z,91.30
2019-04-23T22:47:59.866Z,91.40
2019-04-23T22:50:18.846Z,91.50
2019-04-23T22:52:53.683Z,91.70
2019-04-23T22:55:44.217Z,91.80
2019-04-23T23:00:19.158Z,92.00
2019-04-23T23:02:58.322Z,92.00
2019-04-23T23:05:53.995Z,92.20
2019-04-23T23:10:37.713Z,92.20
2019-04-23T23:13:14.600Z,92.30
2019-04-23T23:15:46.220Z,92.40
2019-04-23T23:20:47.932Z,92.60
2019-04-23T23:23:11.221Z,92.70
2019-04-23T23:25:39.379Z,92.80
2019-04-23T23:28:13.486Z,93.00
2019-04-23T23:30:52.017Z,93.10
2019-04-23T23:33:11.536Z,93.20
2019-04-23T23:35:34.776Z,93.20
2019-04-23T23:38:15.926Z,93.20
2019-04-23T23:43:23.092Z,93.10
2019-04-23T23:45:45.170Z,93.10
2019-04-23T23:48:14.789Z,93.20
2019-04-23T23:50:44.942Z,93.20
2019-04-23T23:53:27.913Z,93.20
2019-04-23T23:55:49.545Z,93.20
2019-04-23T23:58:25.297Z,93.20
